Time,TemperatureF,DewpointF,PressureIn,WindDirection,WindDirectionDegrees,WindSpeedMPH,WindSpeedGustMPH,Humidity,HourlyPrecipIn,Conditions,Clouds,dailyrainin,SoftwareType,DateUTC
2013-07-16 00:01:00,77.8,70.4,30.15,SE,146,4.6,4.6,78,0.00,CLR,SKC,0.00,WeatherDisplay:10.37,2013-07-16 05:01:00,
2013-07-16 00:06:00,77.8,70.4,30.15,SE,134,3.5,3.5,78,0.00,CLR,SKC,0.00,WeatherDisplay:10.37,2013-07-16 05:06:00,
2013-07-16 00:11:00,77.7,70.3,30.15,ESE,121,1.2,0.0,78,0.00,CLR,SKC,0.00,WeatherDisplay:10.37,2013-07-16 05:11:00,
2013-07-16 00:16:00,77.6,70.2,30.15,SSE,155,6.9,6.9,78,0.00,CLR,SKC,0.00,WeatherDisplay:10.37,2013-07-16 05:16:00,
2013-07-16 00:21:00,77.5,70.1,30.15,SE,141,4.0,4.0,78,0.00,CLR,SKC,0.00,WeatherDisplay:10.37,2013-07-16 05:21:00,
2013-07-16 00:26:00,77.4,70.0,30.15,ESE,120,3.5,3.5,78,0.00,CLR,SKC,0.00,WeatherDisplay:10.37,2013-07-16 05:26:00,
2013-07-16 00:31:00,77.3,69.9,30.15,SE,126,3.5,0.0,78,0.00,CLR,SKC,0.00,WeatherDisplay:10.37,2013-07-16 05:31:00,
2013-07-16 00:36:00,77.2,70.2,30.15,SE,134,2.3,0.0,79,0.00,CLR,SKC,0.00,WeatherDisplay:10.37,2013-07-16 05:36:00,
2013-07-16 00:41:00,77.1,70.1,30.15,ESE,113,3.5,3.5,79,0.00,CLR,SKC,0.00,WeatherDisplay:10.37,2013-07-16 05:41:00,
2013-07-16 00:46:00,77.0,70.0,30.15,SW,221,5.8,5.8,79,0.00,CLR,SKC,0.00,WeatherDisplay:10.37,2013-07-16 05:46:00,
2013-07-16 00:51:00,76.9,69.9,30.15,SSE,152,5.8,5.8,79,0.00,CLR,SKC,0.00,WeatherDisplay:10.37,2013-07-16 05:51:00,
2013-07-16 00:56:00,76.8,70.2,30.15,SSE,160,10.4,10.4,80,0.00,CLR,SKC,0.00,WeatherDisplay:10.37,2013-07-16 05:56:00,
2013-07-16 01:01:00,76.7,70.1,30.15,ESE,110,1.2,1.2,80,0.00,CLR,SKC,0.00,WeatherDisplay:10.37,2013-07-16 06:01:00,
2013-07-16 01:06:00,76.6,70.0,30.15,SSE,163,3.5,3.5,80,0.00,CLR,SKC,0.00,WeatherDisplay:10.37,2013-07-16 06:06:00,
2013-07-16 01:11:00,76.5,70.2,30.15,SE,125,5.8,5.8,81,0.00,CLR,SKC,0.00,WeatherDisplay:10.37,2013-07-16 06:11:00,
2013-07-16 01:16:00,76.5,70.2,30.15,SSE,167,3.5,3.5,81,0.00,CLR,SKC,0.00,WeatherDisplay:10.37,2013-07-16 06:16:00,
2013-07-16 01:21:00,76.4,70.1,30.15,SSE,161,3.5,3.5,81,0.00,CLR,SKC,0.00,WeatherDisplay:10.37,2013-07-16 06:21:00,
2013-07-16 01:26:00,76.3,70.0,30.15,SE,139,3.5,0.0,81,0.00,CLR,SKC,0.00,WeatherDisplay:10.37,2013-07-16 06:26:00,
2013-07-16 01:31:00,76.3,70.0,30.15,South,172,6.9,6.9,81,0.00,CLR,SKC,0.00,WeatherDisplay:10.37,2013-07-16 06:31:00,
2013-07-16 01:36:00,76.2,70.3,30.15,South,174,3.5,3.5,82,0.00,CLR,SKC,0.00,WeatherDisplay:10.37,2013-07-16 06:36:00,
2013-07-16 01:41:00,76.2,70.3,30.15,SE,128,0.0,0.0,82,0.00,CLR,SKC,0.00,WeatherDisplay:10.37,2013-07-16 06:41:00,
2013-07-16 01:46:00,76.1,70.2,30.15,SE,129,0.0,0.0,82,0.00,CLR,SKC,0.00,WeatherDisplay:10.37,2013-07-16 06:46:00,
2013-07-16 01:51:00,76.0,70.1,30.15,SSE,165,3.5,3.5,82,0.00,CLR,SKC,0.00,WeatherDisplay:10.37,2013-07-16 06:51:00,
2013-07-16 01:56:00,75.9,70.0,30.15,ESE,114,3.5,3.6,82,0.00,CLR,SKC,0.00,WeatherDisplay:10.37,2013-07-16 06:56:00,
2013-07-16 02:01:00,75.9,70.0,30.15,South,169,4.0,4.0,82,0.00,CLR,SKC,0.00,WeatherDisplay:10.37,2013-07-16 07:01:00,
2013-07-16 02:06:00,75.8,69.9,30.15,SSE,164,0.0,0.0,82,0.00,CLR,SKC,0.00,WeatherDisplay:10.37,2013-07-16 07:06:00,
2013-07-16 02:11:00,75.7,70.2,30.15,SSE,164,4.6,4.6,83,0.00,CLR,SKC,0.00,WeatherDisplay:10.37,2013-07-16 07:11:00,
2013-07-16 02:16:00,75.6,70.1,30.15,SSE,167,0.0,0.1,83,0.00,CLR,SKC,0.00,WeatherDisplay:10.37,2013-07-16 07:16:00,
2013-07-16 02:21:00,75.5,70.0,30.15,SE,125,0.0,0.0,83,0.00,CLR,SKC,0.00,WeatherDisplay:10.37,2013-07-16 07:21:00,
2013-07-16 02:26:00,75.4,70.2,30.15,SE,145,0.0,0.0,84,0.00,CLR,SKC,0.00,WeatherDisplay:10.37,2013-07-16 07:26:00,
2013-07-16 02:31:00,75.4,70.2,30.15,SSE,147,0.0,0.0,84,0.00,CLR,SKC,0.00,WeatherDisplay:10.37,2013-07-16 07:31:00,
2013-07-16 02:36:00,75.3,70.1,30.15,SE,146,0.0,0.0,84,0.00,CLR,SKC,0.00,WeatherDisplay:10.37,2013-07-16 07:36:00,
2013-07-16 02:42:00,75.2,70.0,30.15,SSE,147,1.2,0.0,84,0.00,CLR,SKC,0.00,WeatherDisplay:10.37,2013-07-16 07:42:00,
2013-07-16 02:47:00,75.1,69.9,30.15,SSE,148,0.0,0.9,84,0.00,CLR,SKC,0.00,WeatherDisplay:10.37,2013-07-16 07:47:00,
2013-07-16 02:52:00,75.0,69.8,30.14,SSE,148,0.0,0.0,84,0.00,CLR,SKC,0.00,WeatherDisplay:10.37,2013-07-16 07:52:00,
2013-07-16 02:57:00,74.9,70.1,30.14,SSE,148,0.0,0.0,85,0.00,CLR,SKC,0.00,WeatherDisplay:10.37,2013-07-16 07:57:00,
2013-07-16 03:02:00,74.8,70.0,30.14,SSE,148,0.0,0.0,85,0.00,CLR,SKC,0.00,WeatherDisplay:10.37,2013-07-16 08:02:00,
2013-07-16 03:07:00,74.7,69.9,30.14,SSE,148,1.2,0.0,85,0.00,CLR,SKC,0.00,WeatherDisplay:10.37,2013-07-16 08:07:00,
2013-07-16 03:12:00,74.6,69.8,30.14,SSE,148,0.0,0.0,85,0.00,CLR,SKC,0.00,WeatherDisplay:10.37,2013-07-16 08:12:00,
2013-07-16 03:17:00,74.5,70.0,30.14,SSE,148,1.2,1.2,86,0.00,CLR,SKC,0.00,WeatherDisplay:10.37,2013-07-16 08:17:00,
2013-07-16 03:22:00,74.5,70.0,30.14,SSE,148,0.0,0.0,86,0.00,CLR,SKC,0.00,WeatherDisplay:10.37,2013-07-16 08:22:00,
2013-07-16 03:27:00,74.4,69.9,30.14,SE,146,1.2,1.2,86,0.00,CLR,SKC,0.00,WeatherDisplay:10.37,2013-07-16 08:27:00,
2013-07-16 03:32:00,74.4,69.9,30.14,SSE,153,6.9,6.9,86,0.00,CLR,SKC,0.00,WeatherDisplay:10.37,2013-07-16 08:32:00,
2013-07-16 03:37:00,74.5,70.0,30.14,SSE,159,4.6,4.6,86,0.00,CLR,SKC,0.00,WeatherDisplay:10.37,2013-07-16 08:37:00,
2013-07-16 03:42:00,74.5,70.0,30.14,SSE,163,3.5,3.5,86,0.00,CLR,SKC,0.00,WeatherDisplay:10.37,2013-07-16 08:42:00,
2013-07-16 03:47:00,74.5,70.0,30.14,SSE,155,3.5,3.5,86,0.00,CLR,SKC,0.00,WeatherDisplay:10.37,2013-07-16 08:47:00,
2013-07-16 03:52:00,74.5,70.0,30.14,SSE,155,0.0,0.0,86,0.00,CLR,SKC,0.00,WeatherDisplay:10.37,2013-07-16 08:52:00,
2013-07-16 03:57:00,74.5,70.0,30.14,SSE,155,0.0,0.0,86,0.00,CLR,SKC,0.00,WeatherDisplay:10.37,2013-07-16 08:57:00,
2013-07-16 04:02:00,74.5,70.0,30.14,SSE,149,2.3,0.0,86,0.00,CLR,SKC,0.00,WeatherDisplay:10.37,2013-07-16 09:02:00,
2013-07-16 04:07:00,74.5,70.0,30.14,SE,146,1.2,1.2,86,0.00,CLR,SKC,0.00,WeatherDisplay:10.37,2013-07-16 09:07:00,
2013-07-16 04:12:00,74.4,69.9,30.14,SSE,155,5.8,5.8,86,0.00,CLR,SKC,0.00,WeatherDisplay:10.37,2013-07-16 09:12:00,
2013-07-16 04:17:00,74.4,69.9,30.14,SSE,156,1.2,1.2,86,0.00,CLR,SKC,0.00,WeatherDisplay:10.37,2013-07-16 09:17:00,
2013-07-16 04:22:00,74.4,69.9,30.14,SSE,157,1.2,0.0,86,0.00,CLR,SKC,0.00,WeatherDisplay:10.37,2013-07-16 09:22:00,
2013-07-16 04:27:00,74.4,69.9,30.14,SSE,157,3.5,0.0,86,0.00,CLR,SKC,0.00,WeatherDisplay:10.37,2013-07-16 09:27:00,
2013-07-16 04:32:00,74.4,69.9,30.14,SSE,156,1.2,1.2,86,0.00,CLR,SKC,0.00,WeatherDisplay:10.37,2013-07-16 09:32:00,
2013-07-16 04:37:00,74.3,69.8,30.14,SSE,156,0.0,0.0,86,0.00,CLR,SKC,0.00,WeatherDisplay:10.37,2013-07-16 09:37:00,
2013-07-16 04:42:00,74.2,70.1,30.15,ESE,111,1.2,1.2,87,0.00,CLR,SKC,0.00,WeatherDisplay:10.37,2013-07-16 09:42:00,
2013-07-16 04:47:00,74.2,70.1,30.14,SE,145,0.0,0.0,87,0.00,CLR,SKC,0.00,WeatherDisplay:10.37,2013-07-16 09:47:00,
2013-07-16 04:52:00,74.2,70.1,30.14,SSE,157,0.0,0.0,87,0.00,CLR,SKC,0.00,WeatherDisplay:10.37,2013-07-16 09:52:00,
2013-07-16 04:57:00,74.2,70.1,30.15,SSE,155,1.2,1.2,87,0.00,CLR,SKC,0.00,WeatherDisplay:10.37,2013-07-16 09:57:00,
2013-07-16 05:02:00,74.1,70.0,30.14,SSE,167,0.0,0.0,87,0.00,CLR,SKC,0.00,WeatherDisplay:10.37,2013-07-16 10:02:00,
2013-07-16 05:07:00,74.1,70.0,30.15,SSE,158,0.0,0.0,87,0.00,CLR,SKC,0.00,WeatherDisplay:10.37,2013-07-16 10:07:00,
2013-07-16 05:12:00,74.1,70.0,30.15,SSE,158,0.0,0.0,87,0.00,CLR,SKC,0.00,WeatherDisplay:10.37,2013-07-16 10:12:00,
2013-07-16 05:17:00,74.0,69.9,30.15,SSE,155,0.0,0.0,87,0.00,CLR,SKC,0.00,WeatherDisplay:10.37,2013-07-16 10:17:00,
2013-07-16 05:22:00,74.0,69.9,30.15,SSE,155,0.0,0.0,87,0.00,CLR,SKC,0.00,WeatherDisplay:10.37,2013-07-16 10:22:00,
2013-07-16 05:27:00,74.0,69.9,30.15,SSE,161,6.0,6.0,87,0.00,CLR,SKC,0.00,WeatherDisplay:10.37,2013-07-16 10:27:00,
2013-07-16 05:32:00,74.0,69.9,30.15,SSE,162,0.0,0.0,87,0.00,CLR,SKC,0.00,WeatherDisplay:10.37,2013-07-16 10:32:00,
2013-07-16 05:37:00,74.0,69.9,30.15,SE,146,1.2,0.0,87,0.00,CLR,SKC,0.00,WeatherDisplay:10.37,2013-07-16 10:37:00,
2013-07-16 05:42:00,74.0,69.9,30.15,SE,146,3.5,3.5,87,0.00,CLR,SKC,0.00,WeatherDisplay:10.37,2013-07-16 10:42:00,
2013-07-16 05:47:00,74.0,69.9,30.15,SSE,147,0.0,0.0,87,0.00,CLR,SKC,0.00,WeatherDisplay:10.37,2013-07-16 10:47:00,
2013-07-16 05:52:00,74.0,69.9,30.15,South,179,0.0,0.0,87,0.00,CLR,SKC,0.00,WeatherDisplay:10.37,2013-07-16 10:52:00,
2013-07-16 05:57:00,73.9,69.8,30.15,South,184,1.2,0.0,87,0.00,CLR,SKC,0.00,WeatherDisplay:10.37,2013-07-16 10:57:00,
2013-07-16 06:02:00,74.0,69.9,30.15,SSE,148,0.0,0.0,87,0.00,CLR,SKC,0.00,WeatherDisplay:10.37,2013-07-16 11:02:00,
2013-07-16 06:07:00,74.0,69.9,30.15,SSE,148,0.0,0.0,87,0.00,CLR,SKC,0.00,WeatherDisplay:10.37,2013-07-16 11:07:00,
2013-07-16 06:12:00,74.0,69.9,30.15,SSE,157,1.2,0.0,87,0.00,CLR,SKC,0.00,WeatherDisplay:10.37,2013-07-16 11:12:00,
2013-07-16 06:17:00,74.0,69.9,30.15,SSE,159,0.0,0.0,87,0.00,CLR,SKC,0.00,WeatherDisplay:10.37,2013-07-16 11:17:00,
2013-07-16 06:22:00,74.0,69.9,30.16,SSE,168,5.8,0.0,87,0.00,CLR,SKC,0.00,WeatherDisplay:10.37,2013-07-16 11:22:00,
2013-07-16 06:27:00,74.1,70.0,30.16,SSE,160,1.2,0.0,87,0.00,CLR,SKC,0.00,WeatherDisplay:10.37,2013-07-16 11:27:00,
2013-07-16 06:32:00,74.3,70.2,30.16,South,188,5.8,5.8,87,0.00,CLR,SKC,0.00,WeatherDisplay:10.37,2013-07-16 11:32:00,
2013-07-16 06:37:00,74.4,70.3,30.16,SE,125,6.9,6.9,87,0.00,CLR,SKC,0.00,WeatherDisplay:10.37,2013-07-16 11:37:00,
2013-07-16 06:42:00,74.5,70.0,30.16,SSE,168,3.5,0.0,86,0.00,CLR,SKC,0.00,WeatherDisplay:10.37,2013-07-16 11:42:00,
2013-07-16 06:47:00,74.6,70.1,30.16,South,188,4.6,0.0,86,0.00,CLR,SKC,0.00,WeatherDisplay:10.37,2013-07-16 11:47:00,
2013-07-16 06:52:00,74.7,70.2,30.16,SSE,167,0.0,0.0,86,0.00,CLR,SKC,0.00,WeatherDisplay:10.37,2013-07-16 11:52:00,
2013-07-16 06:57:00,74.9,70.4,30.16,South,178,2.3,0.0,86,0.00,CLR,SKC,0.00,WeatherDisplay:10.37,2013-07-16 11:57:00,
2013-07-16 07:02:00,75.0,70.5,30.16,SW,215,4.6,4.6,86,0.00,CLR,SKC,0.00,WeatherDisplay:10.37,2013-07-16 12:02:00,
2013-07-16 07:07:00,75.4,70.6,30.16,South,171,3.5,0.0,85,0.00,CLR,SKC,0.00,WeatherDisplay:10.37,2013-07-16 12:07:00,
2013-07-16 07:12:00,75.7,70.9,30.17,SSE,150,0.0,0.8,85,0.00,CLR,SKC,0.00,WeatherDisplay:10.37,2013-07-16 12:12:00,
2013-07-16 07:17:00,76.0,70.8,30.16,SSW,192,0.0,0.0,84,0.00,CLR,SKC,0.00,WeatherDisplay:10.37,2013-07-16 12:17:00,
2013-07-16 07:22:00,76.3,71.1,30.17,SSE,164,3.5,3.5,84,0.00,CLR,SKC,0.00,WeatherDisplay:10.37,2013-07-16 12:22:00,
2013-07-16 07:27:00,76.6,71.0,30.17,SSW,193,1.2,0.0,83,0.00,CLR,SKC,0.00,WeatherDisplay:10.37,2013-07-16 12:27:00,
2013-07-16 07:32:00,76.8,70.9,30.17,SSW,192,6.9,6.9,82,0.00,CLR,SKC,0.00,WeatherDisplay:10.37,2013-07-16 12:32:00,
2013-07-16 07:37:00,77.0,71.1,30.17,SSE,168,1.2,0.0,82,0.00,CLR,SKC,0.00,WeatherDisplay:10.37,2013-07-16 12:37:00,
2013-07-16 07:42:00,77.3,71.0,30.17,South,169,12.7,12.7,81,0.00,CLR,SKC,0.00,WeatherDisplay:10.37,2013-07-16 12:42:00,
2013-07-16 07:47:00,77.6,70.9,30.17,WSW,241,0.0,1.2,80,0.00,CLR,SKC,0.00,WeatherDisplay:10.37,2013-07-16 12:47:00,
2013-07-16 07:52:00,77.8,71.1,30.17,South,178,0.0,0.1,80,0.00,CLR,SKC,0.00,WeatherDisplay:10.37,2013-07-16 12:52:00,
2013-07-16 07:57:00,78.1,71.1,30.17,SSW,206,4.6,4.6,79,0.00,CLR,SKC,0.00,WeatherDisplay:10.37,2013-07-16 12:57:00,
2013-07-16 08:02:00,78.5,71.4,30.17,SSE,155,0.0,0.0,79,0.00,CLR,SKC,0.00,WeatherDisplay:10.37,2013-07-16 13:02:00,
2013-07-16 08:07:00,78.8,71.4,30.17,SW,227,3.5,3.5,78,0.00,CLR,SKC,0.00,WeatherDisplay:10.37,2013-07-16 13:07:00,
2013-07-16 08:12:00,79.1,71.3,30.17,South,182,3.5,3.5,77,0.00,CLR,SKC,0.00,WeatherDisplay:10.37,2013-07-16 13:12:00,
2013-07-16 08:18:00,79.5,71.7,30.17,SW,218,4.6,4.6,77,0.00,CLR,SKC,0.00,WeatherDisplay:10.37,2013-07-16 13:18:00,
2013-07-16 08:23:00,79.9,71.3,30.17,SSW,196,6.9,6.9,75,0.00,CLR,SKC,0.00,WeatherDisplay:10.37,2013-07-16 13:23:00,
2013-07-16 08:28:00,80.0,71.8,30.17,South,171,8.0,8.0,76,0.00,CLR,SKC,0.00,WeatherDisplay:10.37,2013-07-16 13:28:00,
2013-07-16 08:33:00,80.2,71.6,30.18,South,183,1.2,1.2,75,0.00,CLR,SKC,0.00,WeatherDisplay:10.37,2013-07-16 13:33:00,
2013-07-16 08:38:00,80.4,71.7,30.18,SSW,209,0.0,0.0,75,0.00,CLR,SKC,0.00,WeatherDisplay:10.37,2013-07-16 13:38:00,
2013-07-16 08:43:00,81.0,71.9,30.18,WSW,248,0.0,0.0,74,0.00,CLR,SKC,0.00,WeatherDisplay:10.37,2013-07-16 13:43:00,
2013-07-16 08:48:00,81.4,71.9,30.18,SSW,195,8.1,8.1,73,0.00,CLR,SKC,0.00,WeatherDisplay:10.37,2013-07-16 13:48:00,
2013-07-16 08:53:00,81.5,71.6,30.18,West,278,4.6,4.6,72,0.00,CLR,SKC,0.00,WeatherDisplay:10.37,2013-07-16 13:53:00,
2013-07-16 08:58:00,81.6,72.1,30.18,SSW,203,4.6,4.6,73,0.00,CLR,SKC,0.00,WeatherDisplay:10.37,2013-07-16 13:58:00,
2013-07-16 09:03:00,81.3,71.8,30.18,SSW,207,3.5,3.5,73,0.00,CLR,SKC,0.00,WeatherDisplay:10.37,2013-07-16 14:03:00,
2013-07-16 09:08:00,81.6,71.7,30.18,SSW,196,4.6,4.6,72,0.00,CLR,SKC,0.00,WeatherDisplay:10.37,2013-07-16 14:08:00,
2013-07-16 09:13:00,81.7,71.4,30.18,SSE,158,6.9,6.9,71,0.00,CLR,SKC,0.00,WeatherDisplay:10.37,2013-07-16 14:13:00,
2013-07-16 09:18:00,81.7,71.8,30.18,West,266,6.9,6.9,72,0.00,CLR,SKC,0.00,WeatherDisplay:10.37,2013-07-16 14:18:00,
2013-07-16 09:23:00,81.9,72.0,30.18,West,279,3.5,3.5,72,0.00,CLR,SKC,0.00,WeatherDisplay:10.37,2013-07-16 14:23:00,
2013-07-16 09:28:00,82.0,71.7,30.18,South,175,6.9,6.9,71,0.00,CLR,SKC,0.00,WeatherDisplay:10.37,2013-07-16 14:28:00,
2013-07-16 09:33:00,82.3,72.0,30.18,West,265,4.6,4.6,71,0.00,CLR,SKC,0.00,WeatherDisplay:10.37,2013-07-16 14:33:00,
2013-07-16 09:38:00,82.8,72.4,30.18,West,281,1.2,0.0,71,0.00,CLR,SKC,0.00,WeatherDisplay:10.37,2013-07-16 14:38:00,
2013-07-16 09:43:00,83.2,72.4,30.18,West,271,3.5,3.5,70,0.00,CLR,SKC,0.00,WeatherDisplay:10.37,2013-07-16 14:43:00,
2013-07-16 09:48:00,83.4,72.2,30.18,WNW,297,5.8,5.8,69,0.00,CLR,SKC,0.00,WeatherDisplay:10.37,2013-07-16 14:48:00,
2013-07-16 09:53:00,83.6,72.3,30.18,SW,223,9.2,9.2,69,0.00,CLR,SKC,0.00,WeatherDisplay:10.37,2013-07-16 14:53:00,
2013-07-16 09:58:00,83.8,72.5,30.18,West,259,1.2,1.2,69,0.00,CLR,SKC,0.00,WeatherDisplay:10.37,2013-07-16 14:58:00,
2013-07-16 10:03:00,84.0,72.3,30.18,WSW,250,4.6,4.6,68,0.00,CLR,SKC,0.00,WeatherDisplay:10.37,2013-07-16 15:03:00,
2013-07-16 10:08:00,83.7,71.6,30.18,SSW,205,11.5,11.5,67,0.00,CLR,SKC,0.00,WeatherDisplay:10.37,2013-07-16 15:08:00,
2013-07-16 10:13:00,83.6,71.9,30.18,West,281,0.0,0.1,68,0.00,CLR,SKC,0.00,WeatherDisplay:10.37,2013-07-16 15:13:00,
2013-07-16 10:18:00,84.0,72.7,30.18,South,186,1.0,0.0,69,0.00,CLR,SKC,0.00,WeatherDisplay:10.37,2013-07-16 15:18:00,
2013-07-16 10:23:00,84.7,72.1,30.18,WSW,237,1.2,0.0,66,0.00,CLR,SKC,0.00,WeatherDisplay:10.37,2013-07-16 15:23:00,
2013-07-16 10:28:00,85.3,72.6,30.18,WSW,248,0.0,0.0,66,0.00,CLR,SKC,0.00,WeatherDisplay:10.37,2013-07-16 15:28:00,
2013-07-16 10:33:00,85.9,72.8,30.18,SSW,198,1.2,1.2,65,0.00,CLR,SKC,0.00,WeatherDisplay:10.37,2013-07-16 15:33:00,
2013-07-16 10:38:00,86.4,71.8,30.18,SSW,199,9.0,9.0,62,0.00,CLR,SKC,0.00,WeatherDisplay:10.37,2013-07-16 15:38:00,
2013-07-16 10:43:00,85.9,71.8,30.18,West,279,5.8,5.8,63,0.00,CLR,SKC,0.00,WeatherDisplay:10.37,2013-07-16 15:43:00,
2013-07-16 10:48:00,86.0,72.4,30.18,South,175,0.0,0.0,64,0.00,CLR,SKC,0.00,WeatherDisplay:10.37,2013-07-16 15:48:00,
2013-07-16 10:53:00,86.7,72.6,30.18,SW,223,3.5,3.5,63,0.00,CLR,SKC,0.00,WeatherDisplay:10.37,2013-07-16 15:53:00,
2013-07-16 10:58:00,86.9,72.3,30.18,West,279,9.2,9.2,62,0.00,CLR,SKC,0.00,WeatherDisplay:10.37,2013-07-16 15:58:00,
2013-07-16 11:03:00,86.5,71.9,30.18,WSW,244,1.2,1.2,62,0.00,CLR,SKC,0.00,WeatherDisplay:10.37,2013-07-16 16:03:00,
2013-07-16 11:08:00,86.9,71.8,30.18,SW,227,5.8,5.8,61,0.00,CLR,SKC,0.00,WeatherDisplay:10.37,2013-07-16 16:08:00,
2013-07-16 11:13:00,86.9,71.8,30.18,SW,224,4.6,4.6,61,0.00,CLR,SKC,0.00,WeatherDisplay:10.37,2013-07-16 16:13:00,
2013-07-16 11:18:00,87.1,72.5,30.18,West,268,1.2,1.2,62,0.00,CLR,SKC,0.00,WeatherDisplay:10.37,2013-07-16 16:18:00,
2013-07-16 11:23:00,87.1,72.5,30.18,SW,227,0.0,0.0,62,0.00,CLR,SKC,0.00,WeatherDisplay:10.37,2013-07-16 16:23:00,
2013-07-16 11:28:00,87.7,72.1,30.18,WSW,238,1.2,1.2,60,0.00,CLR,SKC,0.00,WeatherDisplay:10.37,2013-07-16 16:28:00,
2013-07-16 11:33:00,87.4,71.8,30.18,West,261,6.9,6.9,60,0.00,CLR,SKC,0.00,WeatherDisplay:10.37,2013-07-16 16:33:00,
2013-07-16 11:38:00,87.9,72.3,30.18,SSW,211,0.0,0.0,60,0.00,CLR,SKC,0.00,WeatherDisplay:10.37,2013-07-16 16:38:00,
2013-07-16 11:43:00,88.0,71.9,30.18,SW,228,6.9,6.9,59,0.00,CLR,SKC,0.00,WeatherDisplay:10.37,2013-07-16 16:43:00,
2013-07-16 11:48:00,88.1,72.0,30.18,WNW,295,5.8,5.8,59,0.00,CLR,SKC,0.00,WeatherDisplay:10.37,2013-07-16 16:48:00,
2013-07-16 11:53:00,87.8,71.2,30.18,West,275,10.4,10.4,58,0.00,CLR,SKC,0.00,WeatherDisplay:10.37,2013-07-16 16:53:00,
2013-07-16 11:58:00,87.1,70.5,30.18,South,184,11.5,11.5,58,0.00,CLR,SKC,0.00,WeatherDisplay:10.37,2013-07-16 16:58:00,
2013-07-16 12:03:00,87.4,70.8,30.18,SSW,213,6.9,6.9,58,0.00,CLR,SKC,0.00,WeatherDisplay:10.37,2013-07-16 17:03:00,
2013-07-16 12:08:00,87.9,71.8,30.17,WNW,283,6.9,6.9,59,0.00,CLR,SKC,0.00,WeatherDisplay:10.37,2013-07-16 17:08:00,
2013-07-16 12:13:00,88.2,70.5,30.17,West,261,5.8,5.8,56,0.00,CLR,SKC,0.00,WeatherDisplay:10.37,2013-07-16 17:13:00,
2013-07-16 12:18:00,87.8,69.6,30.17,WSW,252,10.4,10.4,55,0.00,CLR,SKC,0.00,WeatherDisplay:10.37,2013-07-16 17:18:00,
2013-07-16 12:19:00,87.8,69.6,30.17,WSW,252,9.2,9.2,55,0.00,CLR,SKC,0.00,WeatherDisplay:10.37,2013-07-16 17:19:00,
2013-07-16 12:24:00,88.3,71.1,30.17,WSW,241,5.8,5.8,57,0.00,CLR,SKC,0.00,WeatherDisplay:10.37,2013-07-16 17:24:00,
2013-07-16 12:29:00,88.6,70.9,30.17,SW,236,5.8,5.8,56,0.00,CLR,SKC,0.00,WeatherDisplay:10.37,2013-07-16 17:29:00,
2013-07-16 12:34:00,88.9,71.2,30.17,WSW,257,13.8,13.8,56,0.00,CLR,SKC,0.00,WeatherDisplay:10.37,2013-07-16 17:34:00,
2013-07-16 12:39:00,89.0,71.3,30.17,SW,221,1.2,1.2,56,0.00,CLR,SKC,0.00,WeatherDisplay:10.37,2013-07-16 17:39:00,
2013-07-16 12:44:00,89.7,71.9,30.17,West,276,0.0,0.0,56,0.00,CLR,SKC,0.00,WeatherDisplay:10.37,2013-07-16 17:44:00,
2013-07-16 12:49:00,90.3,71.9,30.17,SSE,166,0.0,0.0,55,0.00,CLR,SKC,0.00,WeatherDisplay:10.37,2013-07-16 17:49:00,
2013-07-16 12:54:00,90.1,71.8,30.17,SW,235,0.0,0.0,55,0.00,CLR,SKC,0.00,WeatherDisplay:10.37,2013-07-16 17:54:00,
2013-07-16 12:59:00,89.8,72.0,30.17,WSW,240,5.8,5.8,56,0.00,CLR,SKC,0.00,WeatherDisplay:10.37,2013-07-16 17:59:00,
2013-07-16 13:04:00,90.2,72.4,30.17,SSE,163,0.0,0.0,56,0.00,CLR,SKC,0.00,WeatherDisplay:10.37,2013-07-16 18:04:00,
2013-07-16 13:09:00,89.9,70.5,30.17,WSW,254,9.2,9.2,53,0.00,CLR,SKC,0.00,WeatherDisplay:10.37,2013-07-16 18:09:00,
2013-07-16 13:14:00,89.2,71.5,30.17,West,276,6.9,6.9,56,0.00,CLR,SKC,0.00,WeatherDisplay:10.37,2013-07-16 18:14:00,
2013-07-16 13:19:00,89.4,71.6,30.17,West,263,11.5,11.5,56,0.00,CLR,SKC,0.00,WeatherDisplay:10.37,2013-07-16 18:19:00,
2013-07-16 13:24:00,89.7,71.4,30.17,WSW,238,8.1,8.1,55,0.00,CLR,SKC,0.00,WeatherDisplay:10.37,2013-07-16 18:24:00,
2013-07-16 13:29:00,90.0,71.7,30.17,WSW,238,0.0,0.0,55,0.00,CLR,SKC,0.00,WeatherDisplay:10.37,2013-07-16 18:29:00,
2013-07-16 13:34:00,90.3,70.8,30.17,West,277,11.5,11.5,53,0.00,CLR,SKC,0.00,WeatherDisplay:10.37,2013-07-16 18:34:00,
2013-07-16 13:39:00,90.3,71.9,30.17,SSW,210,2.3,0.0,55,0.00,CLR,SKC,0.00,WeatherDisplay:10.37,2013-07-16 18:39:00,
2013-07-16 13:44:00,91.0,72.6,30.17,WSW,237,2.3,0.0,55,0.00,CLR,SKC,0.00,WeatherDisplay:10.37,2013-07-16 18:44:00,
2013-07-16 13:49:00,90.9,72.0,30.17,SSW,205,1.2,0.0,54,0.00,CLR,SKC,0.00,WeatherDisplay:10.37,2013-07-16 18:49:00,
2013-07-16 13:54:00,90.8,71.3,30.17,SW,221,3.5,3.5,53,0.00,CLR,SKC,0.00,WeatherDisplay:10.37,2013-07-16 18:54:00,
2013-07-16 13:59:00,90.4,71.5,30.17,SSW,211,2.3,2.3,54,0.00,CLR,SKC,0.00,WeatherDisplay:10.37,2013-07-16 18:59:00,
2013-07-16 14:04:00,91.0,72.0,30.17,SSE,156,2.3,2.3,54,0.00,CLR,SKC,0.00,WeatherDisplay:10.37,2013-07-16 19:04:00,
2013-07-16 14:09:00,91.4,71.9,30.17,SE,134,6.9,6.9,53,0.00,CLR,SKC,0.00,WeatherDisplay:10.37,2013-07-16 19:09:00,
2013-07-16 14:14:00,91.8,71.7,30.17,WNW,302,5.8,5.8,52,0.00,CLR,SKC,0.00,WeatherDisplay:10.37,2013-07-16 19:14:00,
2013-07-16 14:19:00,90.7,71.8,30.17,SSW,198,4.6,4.6,54,0.00,CLR,SKC,0.00,WeatherDisplay:10.37,2013-07-16 19:19:00,
2013-07-16 14:24:00,90.8,71.3,30.17,SW,219,6.9,6.9,53,0.00,CLR,SKC,0.00,WeatherDisplay:10.37,2013-07-16 19:24:00,
2013-07-16 14:29:00,91.0,72.0,30.16,SSW,201,10.0,10.0,54,0.00,CLR,SKC,0.00,WeatherDisplay:10.37,2013-07-16 19:29:00,
2013-07-16 14:34:00,91.1,71.0,30.17,West,259,6.9,6.9,52,0.00,CLR,SKC,0.00,WeatherDisplay:10.37,2013-07-16 19:34:00,
2013-07-16 14:39:00,90.6,70.6,30.17,South,187,6.9,6.9,52,0.00,CLR,SKC,0.00,WeatherDisplay:10.37,2013-07-16 19:39:00,
2013-07-16 14:44:00,90.9,72.0,30.16,WNW,296,0.0,0.0,54,0.00,CLR,SKC,0.00,WeatherDisplay:10.37,2013-07-16 19:44:00,
2013-07-16 14:49:00,91.9,72.3,30.17,SW,217,11.5,11.5,53,0.00,CLR,SKC,0.00,WeatherDisplay:10.37,2013-07-16 19:49:00,
2013-07-16 14:54:00,92.2,71.5,30.17,West,279,1.2,1.2,51,0.00,CLR,SKC,0.00,WeatherDisplay:10.37,2013-07-16 19:54:00,
2013-07-16 14:59:00,92.2,70.9,30.16,SW,232,3.5,3.5,50,0.00,CLR,SKC,0.00,WeatherDisplay:10.37,2013-07-16 19:59:00,
2013-07-16 15:04:00,92.5,71.2,30.16,SSW,213,0.0,1.3,50,0.00,CLR,SKC,0.00,WeatherDisplay:10.37,2013-07-16 20:04:00,
2013-07-16 15:09:00,91.7,69.2,30.16,West,263,9.2,9.2,48,0.00,CLR,SKC,0.00,WeatherDisplay:10.37,2013-07-16 20:09:00,
2013-07-16 15:14:00,91.1,70.5,30.16,WNW,290,5.8,5.8,51,0.00,CLR,SKC,0.00,WeatherDisplay:10.37,2013-07-16 20:14:00,
2013-07-16 15:19:00,91.0,69.8,30.16,WNW,301,6.9,6.9,50,0.00,CLR,SKC,0.00,WeatherDisplay:10.37,2013-07-16 20:19:00,
2013-07-16 15:24:00,91.1,70.5,30.16,SSE,157,1.2,1.2,51,0.00,CLR,SKC,0.00,WeatherDisplay:10.37,2013-07-16 20:24:00,
2013-07-16 15:29:00,91.3,69.5,30.16,SSW,196,11.5,11.5,49,0.00,CLR,SKC,0.00,WeatherDisplay:10.37,2013-07-16 20:29:00,
2013-07-16 15:34:00,91.5,70.2,30.16,WNW,283,3.5,3.5,50,0.00,CLR,SKC,0.00,WeatherDisplay:10.37,2013-07-16 20:34:00,
2013-07-16 15:39:00,92.3,70.4,30.16,SSW,194,11.5,11.5,49,0.00,CLR,SKC,0.00,WeatherDisplay:10.37,2013-07-16 20:39:00,
2013-07-16 15:44:00,92.5,71.2,30.16,SW,223,4.6,4.6,50,0.00,CLR,SKC,0.00,WeatherDisplay:10.37,2013-07-16 20:44:00,
2013-07-16 15:49:00,92.4,71.1,30.16,SSW,211,3.5,3.5,50,0.00,CLR,SKC,0.00,WeatherDisplay:10.37,2013-07-16 20:49:00,
2013-07-16 15:54:00,92.5,70.6,30.16,SW,225,6.9,6.9,49,0.00,CLR,SKC,0.00,WeatherDisplay:10.37,2013-07-16 20:54:00,
2013-07-16 15:59:00,92.0,71.3,30.16,SSW,213,3.5,3.5,51,0.00,CLR,SKC,0.00,WeatherDisplay:10.37,2013-07-16 20:59:00,
2013-07-16 16:04:00,91.7,71.0,30.16,SW,228,3.5,3.5,51,0.00,CLR,SKC,0.00,WeatherDisplay:10.37,2013-07-16 21:04:00,
2013-07-16 16:09:00,91.8,71.7,30.15,WNW,294,1.2,0.0,52,0.00,CLR,SKC,0.00,WeatherDisplay:10.37,2013-07-16 21:09:00,
2013-07-16 16:14:00,92.7,71.9,30.15,SSW,210,0.0,0.0,51,0.00,CLR,SKC,0.00,WeatherDisplay:10.37,2013-07-16 21:14:00,
2013-07-16 16:19:00,92.3,71.0,30.15,SW,223,11.5,11.5,50,0.00,CLR,SKC,0.00,WeatherDisplay:10.37,2013-07-16 21:19:00,
2013-07-16 16:24:00,91.8,70.5,30.15,SSW,205,11.5,11.5,50,0.00,CLR,SKC,0.00,WeatherDisplay:10.37,2013-07-16 21:24:00,
2013-07-16 16:29:00,91.9,71.8,30.15,SW,231,1.2,1.2,52,0.00,CLR,SKC,0.00,WeatherDisplay:10.37,2013-07-16 21:29:00,
2013-07-16 16:34:00,92.5,71.2,30.15,South,182,6.9,6.9,50,0.00,CLR,SKC,0.00,WeatherDisplay:10.37,2013-07-16 21:34:00,
2013-07-16 16:39:00,91.9,70.6,30.15,West,270,9.2,9.2,50,0.00,CLR,SKC,0.00,WeatherDisplay:10.37,2013-07-16 21:39:00,
2013-07-16 16:44:00,90.9,70.8,30.15,WSW,239,1.2,1.2,52,0.00,CLR,SKC,0.00,WeatherDisplay:10.37,2013-07-16 21:44:00,
2013-07-16 16:49:00,91.2,71.7,30.15,WSW,256,2.3,2.3,53,0.00,CLR,SKC,0.00,WeatherDisplay:10.37,2013-07-16 21:49:00,
2013-07-16 16:54:00,91.6,71.5,30.15,WSW,244,3.5,3.5,52,0.00,CLR,SKC,0.00,WeatherDisplay:10.37,2013-07-16 21:54:00,
2013-07-16 16:59:00,92.1,71.9,30.15,SW,227,3.5,3.5,52,0.00,CLR,SKC,0.00,WeatherDisplay:10.37,2013-07-16 21:59:00,
2013-07-16 17:05:00,92.1,72.5,30.15,SW,218,3.5,3.5,53,0.00,CLR,SKC,0.00,WeatherDisplay:10.37,2013-07-16 22:05:00,
2013-07-16 17:10:00,91.8,71.1,30.15,SW,225,6.9,6.9,51,0.00,CLR,SKC,0.00,WeatherDisplay:10.37,2013-07-16 22:10:00,
2013-07-16 17:15:00,91.3,70.6,30.15,South,184,9.2,9.2,51,0.00,CLR,SKC,0.00,WeatherDisplay:10.37,2013-07-16 22:15:00,
2013-07-16 17:20:00,91.1,71.6,30.15,SSW,208,5.8,5.8,53,0.00,CLR,SKC,0.00,WeatherDisplay:10.37,2013-07-16 22:20:00,
2013-07-16 17:25:00,90.9,71.4,30.15,SE,143,0.0,0.0,53,0.00,CLR,SKC,0.00,WeatherDisplay:10.37,2013-07-16 22:25:00,
2013-07-16 17:30:00,91.1,71.0,30.15,West,264,3.5,3.5,52,0.00,CLR,SKC,0.00,WeatherDisplay:10.37,2013-07-16 22:30:00,
2013-07-16 17:35:00,91.3,70.6,30.15,SSW,210,4.6,4.6,51,0.00,CLR,SKC,0.00,WeatherDisplay:10.37,2013-07-16 22:35:00,
2013-07-16 17:40:00,90.9,69.7,30.15,SE,136,4.6,4.6,50,0.00,CLR,SKC,0.00,WeatherDisplay:10.37,2013-07-16 22:40:00,
2013-07-16 17:45:00,91.2,71.1,30.15,SW,219,12.0,12.0,52,0.00,CLR,SKC,0.00,WeatherDisplay:10.37,2013-07-16 22:45:00,
2013-07-16 17:50:00,91.0,71.5,30.15,WSW,253,0.0,0.0,53,0.00,CLR,SKC,0.00,WeatherDisplay:10.37,2013-07-16 22:50:00,
2013-07-16 17:55:00,91.1,70.5,30.15,SW,232,10.4,10.4,51,0.00,CLR,SKC,0.00,WeatherDisplay:10.37,2013-07-16 22:55:00,
2013-07-16 18:00:00,90.8,70.2,30.14,WNW,294,4.6,4.6,51,0.00,CLR,SKC,0.00,WeatherDisplay:10.37,2013-07-16 23:00:00,
2013-07-16 18:05:00,90.8,70.2,30.14,WSW,238,5.8,5.8,51,0.00,CLR,SKC,0.00,WeatherDisplay:10.37,2013-07-16 23:05:00,
2013-07-16 18:10:00,91.1,71.0,30.14,SSW,211,0.0,0.1,52,0.00,CLR,SKC,0.00,WeatherDisplay:10.37,2013-07-16 23:10:00,
2013-07-16 18:15:00,91.4,70.7,30.14,WSW,258,1.2,1.2,51,0.00,CLR,SKC,0.00,WeatherDisplay:10.37,2013-07-16 23:15:00,
2013-07-16 18:20:00,91.2,70.5,30.14,West,280,6.9,6.9,51,0.00,CLR,SKC,0.00,WeatherDisplay:10.37,2013-07-16 23:20:00,
2013-07-16 18:25:00,91.2,70.5,30.14,SSW,207,2.3,2.3,51,0.00,CLR,SKC,0.00,WeatherDisplay:10.37,2013-07-16 23:25:00,
2013-07-16 18:30:00,91.2,71.1,30.14,West,272,1.2,0.0,52,0.00,CLR,SKC,0.00,WeatherDisplay:10.37,2013-07-16 23:30:00,
2013-07-16 18:35:00,90.9,70.8,30.14,WSW,244,3.5,3.5,52,0.00,CLR,SKC,0.00,WeatherDisplay:10.37,2013-07-16 23:35:00,
2013-07-16 18:40:00,90.8,70.7,30.14,WSW,250,2.3,2.3,52,0.00,CLR,SKC,0.00,WeatherDisplay:10.37,2013-07-16 23:40:00,
2013-07-16 18:45:00,90.9,71.4,30.14,West,259,3.5,3.5,53,0.00,CLR,SKC,0.00,WeatherDisplay:10.37,2013-07-16 23:45:00,
2013-07-16 18:50:00,91.4,71.9,30.14,WSW,258,0.0,0.0,53,0.00,CLR,SKC,0.00,WeatherDisplay:10.37,2013-07-16 23:50:00,
2013-07-16 18:55:00,91.7,72.1,30.14,SSW,210,0.0,0.0,53,0.00,CLR,SKC,0.00,WeatherDisplay:10.37,2013-07-16 23:55:00,
2013-07-16 19:00:00,92.0,71.9,30.14,SSW,210,0.0,0.0,52,0.00,CLR,SKC,0.00,WeatherDisplay:10.37,2013-07-17 00:00:00,
2013-07-16 19:05:00,91.8,71.7,30.14,WSW,240,2.0,2.0,52,0.00,CLR,SKC,0.00,WeatherDisplay:10.37,2013-07-17 00:05:00,
2013-07-16 19:10:00,90.9,71.4,30.14,SW,235,0.0,0.0,53,0.00,CLR,SKC,0.00,WeatherDisplay:10.37,2013-07-17 00:10:00,
2013-07-16 19:15:00,90.6,71.7,30.14,SW,227,0.0,0.0,54,0.00,CLR,SKC,0.00,WeatherDisplay:10.37,2013-07-17 00:15:00,
2013-07-16 19:20:00,90.6,72.2,30.14,SW,227,0.0,0.0,55,0.00,CLR,SKC,0.00,WeatherDisplay:10.37,2013-07-17 00:20:00,
2013-07-16 19:25:00,90.7,72.3,30.14,SW,227,0.0,0.0,55,0.00,CLR,SKC,0.00,WeatherDisplay:10.37,2013-07-17 00:25:00,
2013-07-16 19:30:00,90.7,71.8,30.14,SW,226,0.0,0.0,54,0.00,CLR,SKC,0.00,WeatherDisplay:10.37,2013-07-17 00:30:00,
2013-07-16 19:35:00,90.5,72.1,30.14,SW,226,0.0,0.0,55,0.00,CLR,SKC,0.00,WeatherDisplay:10.37,2013-07-17 00:35:00,
2013-07-16 19:40:00,90.2,72.4,30.14,SW,226,0.0,0.0,56,0.00,CLR,SKC,0.00,WeatherDisplay:10.37,2013-07-17 00:40:00,
2013-07-16 19:45:00,89.9,72.1,30.14,SW,226,0.0,0.0,56,0.00,CLR,SKC,0.00,WeatherDisplay:10.37,2013-07-17 00:45:00,
2013-07-16 19:50:00,89.6,72.3,30.14,SW,226,0.0,0.0,57,0.00,CLR,SKC,0.00,WeatherDisplay:10.37,2013-07-17 00:50:00,
2013-07-16 19:55:00,89.6,72.3,30.14,SW,226,0.0,0.0,57,0.00,CLR,SKC,0.00,WeatherDisplay:10.37,2013-07-17 00:55:00,
2013-07-16 20:00:00,89.3,72.1,30.14,SW,226,0.0,0.0,57,0.00,CLR,SKC,0.00,WeatherDisplay:10.37,2013-07-17 01:00:00,
2013-07-16 20:05:00,88.8,72.1,30.14,SW,226,0.0,0.0,58,0.00,CLR,SKC,0.00,WeatherDisplay:10.37,2013-07-17 01:05:00,
2013-07-16 20:10:00,88.5,72.3,30.14,SW,226,0.0,0.0,59,0.00,CLR,SKC,0.00,WeatherDisplay:10.37,2013-07-17 01:10:00,
2013-07-16 20:15:00,88.3,72.2,30.14,SW,226,0.0,0.0,59,0.00,CLR,SKC,0.00,WeatherDisplay:10.37,2013-07-17 01:15:00,
2013-07-16 20:20:00,88.3,72.7,30.14,SW,226,0.0,0.0,60,0.00,CLR,SKC,0.00,WeatherDisplay:10.37,2013-07-17 01:20:00,
2013-07-16 20:25:00,88.0,72.4,30.14,SW,219,1.2,1.2,60,0.00,CLR,SKC,0.00,WeatherDisplay:10.37,2013-07-17 01:25:00,
2013-07-16 20:26:00,87.9,72.3,30.14,SW,219,0.0,0.0,60,0.00,CLR,SKC,0.00,WeatherDisplay:10.37,2013-07-17 01:26:00,
2013-07-16 20:31:00,87.1,72.5,30.14,SW,219,0.0,0.0,62,0.00,CLR,SKC,0.00,WeatherDisplay:10.37,2013-07-17 01:31:00,
2013-07-16 20:36:00,86.4,72.3,30.14,SW,218,0.0,0.0,63,0.00,CLR,SKC,0.00,WeatherDisplay:10.37,2013-07-17 01:36:00,
2013-07-16 20:41:00,85.7,72.1,30.14,SW,218,0.0,0.0,64,0.00,CLR,SKC,0.00,WeatherDisplay:10.37,2013-07-17 01:41:00,
2013-07-16 20:46:00,85.2,72.1,30.14,SW,218,1.2,0.0,65,0.00,CLR,SKC,0.00,WeatherDisplay:10.37,2013-07-17 01:46:00,
2013-07-16 20:51:00,84.7,72.1,30.14,SW,215,0.0,0.0,66,0.00,CLR,SKC,0.00,WeatherDisplay:10.37,2013-07-17 01:51:00,
2013-07-16 20:56:00,84.2,72.0,30.14,SW,215,0.0,0.0,67,0.00,CLR,SKC,0.00,WeatherDisplay:10.37,2013-07-17 01:56:00,
2013-07-16 21:01:00,83.8,72.1,30.14,SW,215,1.2,0.0,68,0.00,CLR,SKC,0.00,WeatherDisplay:10.37,2013-07-17 02:01:00,
2013-07-16 21:06:00,83.5,71.8,30.14,SW,215,0.0,0.0,68,0.00,CLR,SKC,0.00,WeatherDisplay:10.37,2013-07-17 02:06:00,
2013-07-16 21:11:00,83.3,72.1,30.14,SSW,211,0.0,0.0,69,0.00,CLR,SKC,0.00,WeatherDisplay:10.37,2013-07-17 02:11:00,
2013-07-16 21:16:00,83.1,71.9,30.15,SSW,211,0.0,0.0,69,0.00,CLR,SKC,0.00,WeatherDisplay:10.37,2013-07-17 02:16:00,
2013-07-16 21:21:00,82.9,72.1,30.15,SSW,211,0.0,0.0,70,0.00,CLR,SKC,0.00,WeatherDisplay:10.37,2013-07-17 02:21:00,
2013-07-16 21:26:00,82.7,71.9,30.15,SSW,211,0.0,0.0,70,0.00,CLR,SKC,0.00,WeatherDisplay:10.37,2013-07-17 02:26:00,
2013-07-16 21:31:00,82.4,72.0,30.15,SSW,211,0.0,0.0,71,0.00,CLR,SKC,0.00,WeatherDisplay:10.37,2013-07-17 02:31:00,
2013-07-16 21:36:00,82.2,71.9,30.16,SSW,211,0.0,0.0,71,0.00,CLR,SKC,0.00,WeatherDisplay:10.37,2013-07-17 02:36:00,
2013-07-16 21:41:00,82.0,72.1,30.16,SSW,211,3.5,3.5,72,0.00,CLR,SKC,0.00,WeatherDisplay:10.37,2013-07-17 02:41:00,
2013-07-16 21:46:00,81.8,72.3,30.16,SSW,211,0.0,0.0,73,0.00,CLR,SKC,0.00,WeatherDisplay:10.37,2013-07-17 02:46:00,
2013-07-16 21:51:00,81.7,72.2,30.16,SSW,211,0.0,0.0,73,0.00,CLR,SKC,0.00,WeatherDisplay:10.37,2013-07-17 02:51:00,
2013-07-16 21:56:00,81.5,72.0,30.17,SSW,211,0.0,0.0,73,0.00,CLR,SKC,0.00,WeatherDisplay:10.37,2013-07-17 02:56:00,
2013-07-16 22:01:00,81.3,72.2,30.17,SSW,211,0.0,0.0,74,0.00,CLR,SKC,0.00,WeatherDisplay:10.37,2013-07-17 03:01:00,
2013-07-16 22:06:00,81.1,72.0,30.17,SSW,211,0.0,0.0,74,0.00,CLR,SKC,0.00,WeatherDisplay:10.37,2013-07-17 03:06:00,
2013-07-16 22:11:00,81.0,71.9,30.17,SSW,211,0.0,0.0,74,0.00,CLR,SKC,0.00,WeatherDisplay:10.37,2013-07-17 03:11:00,
2013-07-16 22:16:00,80.7,72.0,30.17,SSW,211,0.0,0.0,75,0.00,CLR,SKC,0.00,WeatherDisplay:10.37,2013-07-17 03:16:00,
2013-07-16 22:21:00,80.5,71.8,30.17,SSW,211,0.0,0.0,75,0.00,CLR,SKC,0.00,WeatherDisplay:10.37,2013-07-17 03:21:00,
2013-07-16 22:26:00,80.3,72.0,30.17,SSW,211,0.0,0.0,76,0.00,CLR,SKC,0.00,WeatherDisplay:10.37,2013-07-17 03:26:00,
2013-07-16 22:31:00,80.1,71.8,30.17,SSW,211,0.0,0.0,76,0.00,CLR,SKC,0.00,WeatherDisplay:10.37,2013-07-17 03:31:00,
2013-07-16 22:36:00,79.9,71.7,30.17,SSW,211,0.0,0.0,76,0.00,CLR,SKC,0.00,WeatherDisplay:10.37,2013-07-17 03:36:00,
2013-07-16 22:41:00,79.7,71.8,30.17,SSW,211,0.0,0.0,77,0.00,CLR,SKC,0.00,WeatherDisplay:10.37,2013-07-17 03:41:00,
2013-07-16 22:46:00,79.6,71.8,30.17,SSW,211,0.0,0.0,77,0.00,CLR,SKC,0.00,WeatherDisplay:10.37,2013-07-17 03:46:00,
2013-07-16 22:51:00,79.5,72.0,30.17,SSW,211,0.0,0.0,78,0.00,CLR,SKC,0.00,WeatherDisplay:10.37,2013-07-17 03:51:00,
2013-07-16 22:56:00,79.4,71.9,30.17,SSW,211,0.0,0.0,78,0.00,CLR,SKC,0.00,WeatherDisplay:10.37,2013-07-17 03:56:00,
2013-07-16 23:01:00,79.2,71.7,30.18,SSW,211,0.0,0.0,78,0.00,CLR,SKC,0.00,WeatherDisplay:10.37,2013-07-17 04:01:00,
2013-07-16 23:06:00,78.9,71.8,30.18,SSW,211,0.0,0.0,79,0.00,CLR,SKC,0.00,WeatherDisplay:10.37,2013-07-17 04:06:00,
2013-07-16 23:11:00,78.7,72.0,30.18,SSW,211,0.0,0.0,80,0.00,CLR,SKC,0.00,WeatherDisplay:10.37,2013-07-17 04:11:00,
2013-07-16 23:16:00,78.6,71.9,30.18,SSW,211,0.0,0.0,80,0.00,CLR,SKC,0.00,WeatherDisplay:10.37,2013-07-17 04:16:00,
2013-07-16 23:21:00,78.3,72.0,30.18,SSW,211,0.0,0.0,81,0.00,CLR,SKC,0.00,WeatherDisplay:10.37,2013-07-17 04:21:00,
2013-07-16 23:26:00,78.1,71.8,30.18,SSW,211,0.0,0.0,81,0.00,CLR,SKC,0.00,WeatherDisplay:10.37,2013-07-17 04:26:00,
2013-07-16 23:31:00,78.0,71.7,30.18,SSW,211,0.0,0.0,81,0.00,CLR,SKC,0.00,WeatherDisplay:10.37,2013-07-17 04:31:00,
2013-07-16 23:36:00,77.8,71.5,30.18,SSW,211,0.0,0.0,81,0.00,CLR,SKC,0.00,WeatherDisplay:10.37,2013-07-17 04:36:00,
2013-07-16 23:41:00,77.8,71.5,30.18,SSW,211,0.0,0.0,81,0.00,CLR,SKC,0.00,WeatherDisplay:10.37,2013-07-17 04:41:00,
2013-07-16 23:46:00,77.8,71.9,30.18,SSW,211,0.0,0.0,82,0.00,CLR,SKC,0.00,WeatherDisplay:10.37,2013-07-17 04:46:00,
2013-07-16 23:51:00,77.7,71.8,30.18,SSW,211,0.0,0.0,82,0.00,CLR,SKC,0.00,WeatherDisplay:10.37,2013-07-17 04:51:00,
2013-07-16 23:55:00,77.7,71.8,30.18,SSW,211,0.0,0.0,82,0.00,CLR,SKC,0.00,WeatherDisplay:10.37,2013-07-17 04:55:00,
2013-07-16 23:59:00,77.6,71.7,30.18,SSW,211,0.0,0.0,82,0.00,CLR,SKC,0.00,WeatherDisplay:10.37,2013-07-17 04:59:00,